Time;durP1;ratioP1;P1;durP2;ratioP2;P2;SDS_P1;SDS_P2;PMS_P1;PMS_P2;Temp;Humidity;BMP_temperature;BMP_pressure;BME280_temperature;BME280_humidity;BME280_pressure;Samples;Min_cycle;Max_cycle;Signal;HPM_P1;HPM_P2
2022/06/11 00:04:31;;;;;;;6.80;3.20;;;;;;;25.06;45.51;100191.02;103777;1315;81850;-91
2022/06/11 00:10:07;;;;;;;5.10;3.00;;;;;;;25.12;45.59;100175.46;103766;1315;67970;-89
2022/06/11 00:15:44;;;;;;;5.60;3.40;;;;;;;25.08;45.54;100166.02;103765;1315;67813;-89
2022/06/11 00:18:47;;;;;;;4.30;2.90;;;;;;;25.03;45.66;100165.45;103766;1315;81947;-90
2022/06/11 00:27:27;;;;;;;4.90;3.30;;;;;;;25.08;45.69;100168.33;103498;1315;67586;-90
2022/06/11 00:33:12;;;;;;;4.50;3.00;;;;;;;25.04;45.83;100165.95;103812;1315;83911;-88
2022/06/11 00:39:02;;;;;;;6.30;3.60;;;;;;;25.09;45.88;100168.94;103719;1315;67996;-90
2022/06/11 00:42:05;;;;;;;5.60;3.50;;;;;;;25.07;45.91;100167.59;103713;1315;67567;-90
2022/06/11 00:48:24;;;;;;;5.00;3.20;;;;;;;25.06;46.05;100168.01;99829;1315;5485417;-90
2022/06/11 00:54:24;;;;;;;5.80;3.60;;;;;;;25.06;46.12;100176.00;103767;1318;67776;-90
2022/06/11 00:59:58;;;;;;;6.60;3.90;;;;;;;25.05;46.25;100178.48;103718;1316;74091;-90
2022/06/11 01:05:56;;;;;;;5.70;3.40;;;;;;;25.08;46.19;100177.09;103726;1315;71523;-89
2022/06/11 01:11:43;;;;;;;10.70;4.00;;;;;;;25.01;46.32;100170.19;103731;1315;67973;31
2022/06/11 01:15:03;;;;;;;5.60;3.50;;;;;;;25.06;46.51;100174.60;103807;1315;74341;-89
2022/06/11 01:20:58;;;;;;;6.20;3.50;;;;;;;25.05;46.47;100173.80;103746;1315;74364;-90
2022/06/11 01:24:02;;;;;;;5.80;3.20;;;;;;;25.01;46.53;100174.98;103761;1315;68169;-89
2022/06/11 01:30:13;;;;;;;6.00;3.30;;;;;;;25.07;46.79;100174.05;103804;1316;72749;-89
2022/06/11 01:36:11;;;;;;;4.80;3.10;;;;;;;25.03;46.57;100171.48;103759;1315;71588;-89
2022/06/11 01:41:47;;;;;;;6.30;3.20;;;;;;;25.02;46.83;100175.16;103637;1315;67674;-90
2022/06/11 01:47:35;;;;;;;4.20;3.60;;;;;;;25.04;46.81;100178.29;103733;1315;81934;-90
2022/06/11 01:53:50;;;;;;;3.40;3.10;;;;;;;25.00;47.05;100177.52;103483;1316;67735;31
2022/06/11 01:59:39;;;;;;;5.90;3.30;;;;;;;25.04;47.12;100173.46;103744;1315;74063;-90
2022/06/11 02:05:14;;;;;;;4.80;3.30;;;;;;;24.99;46.95;100173.42;103726;1315;71615;-90
2022/06/11 02:08:15;;;;;;;9.60;3.20;;;;;;;25.01;47.17;100170.19;103728;1315;67863;-90
2022/06/11 02:14:44;;;;;;;5.80;3.30;;;;;;;25.03;47.25;100168.42;103759;1316;73463;-90
2022/06/11 02:20:28;;;;;;;4.70;3.40;;;;;;;25.00;47.40;100172.48;103742;1315;71586;-91
2022/06/11 02:26:27;;;;;;;5.30;3.60;;;;;;;25.05;47.34;100174.67;103745;1318;67712;-90
2022/06/11 02:32:17;;;;;;;4.90;3.40;;;;;;;25.04;47.47;100171.88;103638;1315;81732;-90
2022/06/11 02:43:26;;;;;;;6.80;3.50;;;;;;;25.01;47.46;100179.51;103813;1315;73622;-89
2022/06/11 02:49:05;;;;;;;5.70;3.40;;;;;;;24.94;47.61;100189.23;103733;1318;71852;-89
2022/06/11 02:54:58;;;;;;;5.00;3.30;;;;;;;24.97;47.69;100191.22;103750;1315;67696;-90
2022/06/11 03:00:40;;;;;;;8.60;3.90;;;;;;;25.04;47.66;100195.27;103773;1315;81772;-90
2022/06/11 03:06:16;;;;;;;4.10;3.40;;;;;;;24.99;47.67;100199.71;103784;1315;67760;-89
2022/06/11 03:12:00;;;;;;;6.20;3.90;;;;;;;25.03;47.63;100205.05;103743;1315;73538;-89
2022/06/11 03:17:38;;;;;;;7.30;3.60;;;;;;;25.01;47.67;100212.56;103741;1315;71873;-90
2022/06/11 03:23:13;;;;;;;7.90;3.50;;;;;;;25.01;47.73;100218.16;103795;1323;67386;-91
2022/06/11 03:31:29;;;;;;;5.00;3.40;;;;;;;24.98;47.74;100209.17;103715;1315;71422;-90
2022/06/11 03:40:00;;;;;;;4.80;3.50;;;;;;;25.01;47.87;100216.31;103760;1315;72491;-90
2022/06/11 03:45:36;;;;;;;5.30;3.40;;;;;;;24.96;47.89;100218.68;103714;1315;71714;-90
2022/06/11 03:51:10;;;;;;;7.30;3.90;;;;;;;25.02;47.87;100218.67;103717;1316;67100;-89
2022/06/11 03:54:11;;;;;;;7.30;3.80;;;;;;;25.01;47.91;100221.56;103718;1315;73652;-91
2022/06/11 03:59:45;;;;;;;5.20;3.60;;;;;;;24.98;48.00;100226.05;103692;1315;67062;-90
2022/06/11 04:05:36;;;;;;;6.00;3.70;;;;;;;25.00;47.90;100226.67;103769;1315;67845;-89
2022/06/11 04:11:15;;;;;;;5.50;3.70;;;;;;;24.97;47.95;100234.66;103721;1315;80229;-90
2022/06/11 04:16:47;;;;;;;4.80;3.60;;;;;;;25.00;47.94;100232.23;102076;1322;67794;-90
2022/06/11 04:19:46;;;;;;;6.10;3.60;;;;;;;25.01;47.93;100233.09;103786;1315;66172;-89
2022/06/11 04:26:16;;;;;;;5.40;3.70;;;;;;;24.96;47.92;100241.27;103769;1315;81314;-89
2022/06/11 04:31:45;;;;;;;5.80;3.90;;;;;;;25.01;47.88;100240.77;103438;1315;67787;-92
2022/06/11 04:40:18;;;;;;;7.30;3.40;;;;;;;24.97;48.01;100243.46;103729;1315;82877;-91
2022/06/11 04:46:08;;;;;;;4.20;3.40;;;;;;;25.01;47.98;100250.73;103757;1315;68016;-90
2022/06/11 04:51:46;;;;;;;4.50;3.90;;;;;;;24.96;47.95;100250.00;103762;1315;67534;-91
2022/06/11 04:57:23;;;;;;;4.10;3.70;;;;;;;25.01;47.93;100251.61;103670;1318;67127;-90
2022/06/11 05:03:00;;;;;;;6.50;3.50;;;;;;;24.98;48.07;100261.77;103732;1316;67822;-90
2022/06/11 05:08:44;;;;;;;5.20;3.60;;;;;;;25.02;47.99;100263.96;103795;1316;76149;-89
2022/06/11 05:11:45;;;;;;;6.50;3.60;;;;;;;25.03;47.92;100261.86;103693;1318;71769;-89
2022/06/11 05:17:41;;;;;;;4.50;3.60;;;;;;;24.98;47.91;100269.08;92023;1316;67012;-91
2022/06/11 05:20:42;;;;;;;7.60;4.30;;;;;;;25.00;48.03;100271.81;103730;1315;73587;-91
2022/06/11 05:26:33;;;;;;;7.10;4.00;;;;;;;25.03;47.93;100279.89;103774;1316;71740;-89
2022/06/11 05:32:10;;;;;;;4.80;4.00;;;;;;;25.00;47.84;100277.98;103750;1315;67830;-90
2022/06/11 05:37:44;;;;;;;6.40;3.90;;;;;;;25.00;47.78;100283.76;103789;1316;75735;-90
2022/06/11 05:43:21;;;;;;;8.30;3.80;;;;;;;25.00;47.81;100291.43;103764;1316;67699;-90
2022/06/11 05:49:04;;;;;;;7.80;4.30;;;;;;;24.92;47.83;100295.34;103780;1316;67904;-90
2022/06/11 05:54:45;;;;;;;6.00;3.80;;;;;;;24.89;47.90;100294.77;103791;1315;67729;-89
2022/06/11 06:00:24;;;;;;;8.40;4.10;;;;;;;24.98;47.90;100293.72;103797;1315;67949;-91
2022/06/11 06:06:06;;;;;;;5.20;4.10;;;;;;;24.98;47.77;100305.02;103754;1315;75715;-89
2022/06/11 06:11:45;;;;;;;6.80;4.20;;;;;;;24.98;47.80;100310.51;103697;1315;67275;-91
2022/06/11 06:14:48;;;;;;;8.40;4.40;;;;;;;25.02;47.71;100308.63;103741;1315;67827;-91
2022/06/11 06:20:39;;;;;;;6.30;4.20;;;;;;;25.00;47.59;100306.70;103747;1315;81230;-90
2022/06/11 06:23:40;;;;;;;7.90;4.00;;;;;;;24.99;47.72;100306.38;103710;1315;71410;-90
2022/06/11 06:29:31;;;;;;;6.60;3.80;;;;;;;25.06;47.48;100312.23;103757;1315;67022;-89
2022/06/11 06:37:58;;;;;;;5.60;4.10;;;;;;;24.99;47.46;100310.69;103766;1315;71463;-89
2022/06/11 06:43:54;;;;;;;6.30;4.10;;;;;;;25.08;47.42;100314.17;103797;1315;67063;-89
2022/06/11 06:46:57;;;;;;;4.80;4.30;;;;;;;25.08;47.32;100318.80;103766;1315;73702;-89
2022/06/11 06:52:48;;;;;;;5.50;4.00;;;;;;;25.04;47.33;100325.50;103717;1316;71743;-90
2022/06/11 06:58:29;;;;;;;5.10;4.20;;;;;;;25.10;47.07;100332.27;103775;1315;67854;31
2022/06/11 07:07:29;;;;;;;5.60;4.40;;;;;;;25.08;47.07;100342.23;103803;1315;72352;31
2022/06/11 07:16:08;;;;;;;6.40;4.30;;;;;;;25.07;46.98;100344.98;92085;1326;73504;-90
2022/06/11 07:19:55;;;;;;;6.20;4.20;;;;;;;25.07;47.06;100338.90;103646;1318;82252;-87
2022/06/11 07:23:10;;;;;;;;;;;;;;;25.11;46.99;100343.83;103622;1315;71687;-90
2022/06/11 07:29:16;;;;;;;7.10;4.50;;;;;;;25.05;47.01;100346.66;103850;1315;67390;-88
2022/06/11 07:32:35;;;;;;;5.20;4.50;;;;;;;25.04;47.11;100347.59;103732;1315;73549;-90
2022/06/11 07:36:16;;;;;;;6.60;4.10;;;;;;;25.10;47.03;100353.94;103705;1315;81177;-90
2022/06/11 07:44:42;;;;;;;7.60;4.40;;;;;;;25.04;46.93;100368.04;103729;1315;67811;-90
2022/06/11 07:50:20;;;;;;;6.30;4.60;;;;;;;25.11;46.93;100369.92;103751;1315;75546;-91
2022/06/11 07:56:11;;;;;;;6.20;4.10;;;;;;;25.05;46.91;100370.17;103701;1315;68073;-90
2022/06/11 07:59:12;;;;;;;5.70;3.90;;;;;;;25.07;47.15;100369.64;103756;1315;67084;-90
2022/06/11 08:08:36;;;;;;;5.60;4.30;;;;;;;25.03;47.03;100364.60;103867;1315;71588;-88
2022/06/11 08:14:32;;;;;;;7.60;4.70;;;;;;;25.07;47.05;100367.37;103802;1315;67292;-90
2022/06/11 08:20:21;;;;;;;5.30;4.70;;;;;;;25.08;47.16;100367.91;103876;1315;75104;-90
2022/06/11 08:23:24;;;;;;;5.50;4.00;;;;;;;25.05;47.20;100377.99;103896;1315;71466;-90
2022/06/11 08:29:05;;;;;;;5.60;4.20;;;;;;;25.11;47.13;100378.46;103872;1316;67232;-89
2022/06/11 08:35:14;;;;;;;6.30;4.40;;;;;;;25.11;47.00;100376.56;103748;1314;81914;-89
2022/06/11 08:43:35;;;;;;;6.60;4.20;;;;;;;25.12;47.05;100376.91;103768;1315;67885;-91
2022/06/11 08:49:13;;;;;;;8.20;4.50;;;;;;;25.04;47.06;100381.52;103698;1318;81752;-90
2022/06/11 08:55:02;;;;;;;5.20;4.40;;;;;;;25.05;47.39;100377.95;103756;1315;67915;-90
2022/06/11 08:58:34;;;;;;;5.30;4.70;;;;;;;25.11;47.29;100377.29;103789;1315;67946;-90
2022/06/11 09:04:54;;;;;;;6.10;5.00;;;;;;;25.07;47.16;100381.00;103780;1315;81588;-89
2022/06/11 09:10:47;;;;;;;6.40;4.60;;;;;;;25.11;47.43;100380.48;103811;1315;68508;-91
2022/06/11 09:16:36;;;;;;;5.70;4.60;;;;;;;25.08;47.60;100380.42;103729;1315;73280;-89
2022/06/11 09:22:16;;;;;;;6.10;4.40;;;;;;;25.10;47.90;100381.58;103794;1316;72446;-90
2022/06/11 09:28:06;;;;;;;5.20;4.60;;;;;;;25.11;47.94;100380.88;103662;1315;67706;-88
2022/06/11 09:33:37;;;;;;;7.90;4.30;;;;;;;25.08;48.24;100377.50;102841;1316;82443;-89
2022/06/11 09:42:07;;;;;;;4.70;4.10;;;;;;;25.12;48.40;100379.63;103786;1315;67956;-91
2022/06/11 09:45:00;;;;;;;6.40;4.20;;;;;;;25.10;48.53;100378.89;103826;1315;73702;-90
2022/06/11 09:50:55;;;;;;;5.20;4.70;;;;;;;25.17;48.64;100372.23;103765;1315;67129;-90
2022/06/11 09:56:35;;;;;;;6.10;4.60;;;;;;;25.12;48.79;100371.19;103772;1315;67790;-90
2022/06/11 10:02:27;;;;;;;5.40;4.90;;;;;;;25.14;48.77;100375.69;103793;1315;75768;-90
2022/06/11 10:08:01;;;;;;;6.60;5.10;;;;;;;25.15;48.72;100373.91;103813;1315;67962;-89
2022/06/11 10:11:05;;;;;;;7.20;5.10;;;;;;;25.10;48.79;100371.95;103771;1316;67719;-90
2022/06/11 10:16:57;;;;;;;7.80;5.90;;;;;;;25.14;49.02;100366.16;103777;1315;82301;-91
2022/06/11 10:19:53;;;;;;;6.90;5.50;;;;;;;25.15;49.04;100365.52;103839;1316;72426;-91
2022/06/11 10:25:35;;;;;;;6.90;4.60;;;;;;;25.08;48.95;100359.67;103772;1315;67780;-89
2022/06/11 10:31:45;;;;;;;7.20;4.90;;;;;;;25.12;49.05;100355.70;103757;1315;81976;-90
2022/06/11 10:37:36;;;;;;;7.10;5.50;;;;;;;25.07;49.19;100348.95;103739;1315;67854;-91
2022/06/11 10:43:25;;;;;;;6.10;5.20;;;;;;;25.12;49.28;100348.27;103797;1315;74270;-90
2022/06/11 10:49:06;;;;;;;6.00;5.30;;;;;;;25.12;49.16;100348.75;103727;1316;72355;-89
2022/06/11 10:54:40;;;;;;;5.80;5.30;;;;;;;25.13;49.32;100343.07;103777;1316;67811;-89
2022/06/11 11:03:39;;;;;;;5.40;4.80;;;;;;;25.16;49.10;100336.17;103738;1318;72582;31
2022/06/11 11:06:53;;;;;;;6.00;5.50;;;;;;;25.13;49.27;100333.02;103786;1315;67121;-89
2022/06/11 11:19:18;;;;;;;6.10;4.90;;;;;;;25.13;49.35;100335.60;103760;1315;72359;-88
2022/06/11 11:25:04;;;;;;;6.90;5.30;;;;;;;25.19;49.53;100338.20;103829;1314;66432;-88
2022/06/11 11:30:53;;;;;;;5.80;5.30;;;;;;;25.19;49.62;100336.36;101239;1315;81936;-91
2022/06/11 11:36:35;;;;;;;5.50;4.90;;;;;;;25.17;49.62;100335.56;103664;1315;67483;-87
2022/06/11 11:42:38;;;;;;;6.00;5.10;;;;;;;25.14;49.80;100334.55;103826;1315;73258;-90
2022/06/11 11:48:26;;;;;;;5.90;5.20;;;;;;;25.07;49.70;100339.51;102621;1315;72191;31
2022/06/11 11:57:52;;;;;;;5.70;5.00;;;;;;;25.04;50.20;100346.91;90101;1315;73477;-91
2022/06/11 12:01:04;;;;;;;6.30;5.50;;;;;;;25.11;50.00;100339.05;103520;1318;81889;-89
2022/06/11 12:07:03;;;;;;;6.60;5.60;;;;;;;25.15;49.83;100332.72;92799;1315;67107;-90
2022/06/11 12:12:56;;;;;;;6.30;5.70;;;;;;;25.15;50.06;100333.09;103686;1315;74179;-91
2022/06/11 12:18:30;;;;;;;6.40;5.80;;;;;;;25.19;49.81;100331.67;103774;1315;72199;-89
2022/06/11 12:24:34;;;;;;;6.30;5.40;;;;;;;25.11;49.96;100323.52;96826;1315;68447;31
2022/06/11 12:30:16;;;;;;;6.90;6.20;;;;;;;25.18;49.92;100318.10;103725;1316;80857;-90
2022/06/11 12:38:34;;;;;;;6.90;5.50;;;;;;;25.16;49.99;100315.09;103812;1316;67657;-91
2022/06/11 12:44:44;;;;;;;7.30;5.90;;;;;;;25.21;49.94;100304.08;103804;1315;81820;-91
2022/06/11 12:50:58;;;;;;;6.10;5.50;;;;;;;25.13;50.24;100293.59;103757;1315;67177;-91
2022/06/11 12:56:36;;;;;;;6.30;5.40;;;;;;;25.20;50.19;100286.75;103704;1319;81569;-89
2022/06/11 13:02:38;;;;;;;5.70;5.10;;;;;;;25.12;50.32;100270.54;103790;1315;66951;-89
2022/06/11 13:08:53;;;;;;;5.90;5.00;;;;;;;25.17;50.16;100267.11;103752;1328;73790;-89
2022/06/11 13:12:15;;;;;;;5.70;5.10;;;;;;;25.17;50.10;100268.86;103773;1316;81799;-89
2022/06/11 13:15:22;;;;;;;5.00;4.50;;;;;;;25.11;49.99;100269.42;103667;1318;72393;-90
2022/06/11 13:21:20;;;;;;;5.30;4.70;;;;;;;25.17;50.20;100278.00;103737;1315;67057;-89
2022/06/11 13:27:26;;;;;;;5.40;4.20;;;;;;;25.12;50.06;100284.45;103791;1315;81848;-89
2022/06/11 13:36:52;;;;;;;7.80;4.70;;;;;;;25.16;49.98;100295.27;103745;1315;67931;-90
2022/06/11 13:42:48;;;;;;;5.90;4.40;;;;;;;25.10;49.86;100290.10;103781;1316;81831;-90
2022/06/11 13:48:52;;;;;;;4.60;4.20;;;;;;;25.15;49.94;100283.91;103743;1315;67895;-89
2022/06/11 13:57:52;;;;;;;5.30;4.80;;;;;;;25.09;49.96;100286.98;103777;1315;81993;-89
2022/06/11 14:01:05;;;;;;;5.40;4.90;;;;;;;25.12;49.97;100287.03;103730;1315;71276;-89
2022/06/11 14:06:56;;;;;;;6.50;4.30;;;;;;;25.11;49.85;100282.76;103750;1315;67865;-89
2022/06/11 14:12:53;;;;;;;7.20;4.40;;;;;;;25.10;50.05;100279.08;103762;1315;81700;-91
2022/06/11 14:18:34;;;;;;;7.80;4.90;;;;;;;25.13;49.90;100268.66;103814;1315;68047;-90
2022/06/11 14:24:57;;;;;;;6.00;4.80;;;;;;;25.09;50.04;100266.52;103770;1315;74258;-91
2022/06/11 14:30:43;;;;;;;6.40;5.20;;;;;;;25.13;49.78;100254.92;103805;1315;72294;-91
2022/06/11 14:36:21;;;;;;;6.50;4.90;;;;;;;25.13;49.77;100254.47;103757;1315;67810;-89
2022/06/11 14:41:59;;;;;;;6.20;5.20;;;;;;;25.12;49.69;100248.21;103778;1315;81992;-88
2022/06/11 14:45:33;;;;;;;6.10;5.10;;;;;;;25.10;49.69;100241.60;103710;1315;72170;-90
2022/06/11 14:51:21;;;;;;;5.80;5.00;;;;;;;25.01;49.88;100233.66;103765;1315;67400;-90
2022/06/11 14:56:53;;;;;;;6.00;5.10;;;;;;;25.02;49.85;100228.73;103791;1315;83436;-88
2022/06/11 15:06:27;;;;;;;6.30;5.70;;;;;;;25.11;49.55;100215.27;103754;1315;67630;-90
2022/06/11 15:09:45;;;;;;;9.10;6.40;;;;;;;25.10;49.65;100205.83;103791;1316;74182;-90
2022/06/11 15:16:15;;;;;;;8.40;6.10;;;;;;;25.15;49.51;100205.83;103726;1314;71135;-89
2022/06/11 15:21:49;;;;;;;6.50;5.30;;;;;;;25.08;49.51;100213.74;103740;1315;67388;-89
2022/06/11 15:27:32;;;;;;;6.40;4.90;;;;;;;25.15;49.51;100211.04;103748;1315;81856;-91
2022/06/11 15:33:24;;;;;;;5.70;5.00;;;;;;;25.11;49.52;100201.02;103766;1315;67726;-90
2022/06/11 15:39:02;;;;;;;6.90;5.00;;;;;;;25.14;49.34;100194.41;103749;1316;73173;-89
2022/06/11 15:44:44;;;;;;;5.30;4.80;;;;;;;25.15;49.29;100198.77;103788;1315;72207;-91
2022/06/11 15:53:01;;;;;;;5.50;4.70;;;;;;;25.16;49.42;100183.48;103192;1327;72472;-91
2022/06/11 15:58:42;;;;;;;5.80;5.10;;;;;;;25.15;49.22;100184.49;103743;1315;68126;-90
2022/06/11 16:04:19;;;;;;;6.50;5.10;;;;;;;25.16;49.35;100183.45;103748;1315;67110;-90
2022/06/11 16:09:56;;;;;;;6.50;5.20;;;;;;;25.17;49.22;100177.15;103783;1316;75162;-91
2022/06/11 16:12:59;;;;;;;6.20;5.00;;;;;;;25.12;49.29;100181.08;103763;1315;71306;-90
2022/06/11 16:18:42;;;;;;;6.00;5.40;;;;;;;25.16;49.39;100185.16;103796;1316;67767;-90
2022/06/11 16:24:31;;;;;;;6.60;5.80;;;;;;;25.15;49.39;100191.66;103733;1315;81946;-89
2022/06/11 16:27:34;;;;;;;6.40;5.40;;;;;;;25.11;49.40;100195.25;100168;1316;72111;-91
2022/06/11 16:33:28;;;;;;;7.20;5.80;;;;;;;25.17;49.53;100199.50;103768;1315;67646;-91
2022/06/11 16:39:05;;;;;;;8.20;5.50;;;;;;;25.12;49.57;100201.27;103830;1315;75818;-90
2022/06/11 16:44:39;;;;;;;7.30;6.00;;;;;;;25.16;49.72;100192.66;103732;1315;67037;-88
2022/06/11 16:56:29;;;;;;;7.80;5.70;;;;;;;25.11;49.81;100203.23;98643;1316;71639;-89
2022/06/11 16:59:36;;;;;;;6.20;5.60;;;;;;;25.14;49.77;100197.55;101789;1315;67032;-90
2022/06/11 17:11:22;;;;;;;7.00;5.70;;;;;;;25.10;49.84;100204.94;103023;1316;72457;-88
2022/06/11 17:16:59;;;;;;;7.00;5.50;;;;;;;25.14;49.96;100204.56;103786;1315;67942;-90
2022/06/11 17:25:34;;;;;;;7.30;5.60;;;;;;;25.14;50.02;100204.09;103693;1325;71484;-89
2022/06/11 17:35:09;;;;;;;6.90;6.20;;;;;;;25.12;50.12;100208.77;103726;1318;74398;31
2022/06/11 17:43:30;;;;;;;8.50;7.00;;;;;;;25.08;50.42;100214.97;103757;1316;67792;-89
2022/06/11 17:52:14;;;;;;;7.10;6.40;;;;;;;25.00;50.47;100221.31;103851;1315;82981;-88
2022/06/11 17:57:48;;;;;;;6.30;5.60;;;;;;;25.05;50.62;100220.23;103773;1315;68337;-90
2022/06/11 18:03:25;;;;;;;6.80;5.40;;;;;;;25.11;50.58;100218.62;103799;1315;74745;-89
2022/06/11 18:06:26;;;;;;;6.90;6.00;;;;;;;25.07;50.48;100224.45;103754;1315;82056;-89
2022/06/11 18:12:17;;;;;;;7.80;5.50;;;;;;;25.10;50.48;100219.72;103749;1314;67814;-91
2022/06/11 18:17:55;;;;;;;10.00;7.30;;;;;;;25.09;50.49;100227.05;103809;1315;67619;-89
2022/06/11 18:29:31;;;;;;;7.70;6.90;;;;;;;25.11;50.48;100227.07;103780;1315;67819;-89
2022/06/11 18:35:14;;;;;;;7.10;6.30;;;;;;;25.06;50.54;100232.98;103739;1315;81706;-89
2022/06/11 18:40:57;;;;;;;7.20;5.70;;;;;;;25.11;50.48;100238.09;103492;1315;67893;31
2022/06/11 18:44:00;;;;;;;8.00;6.10;;;;;;;25.09;50.41;100239.00;103713;1315;68098;-88
2022/06/11 18:49:55;;;;;;;11.10;5.80;;;;;;;25.05;50.49;100240.66;103788;1315;81797;31
2022/06/11 18:55:29;;;;;;;7.70;5.40;;;;;;;25.09;50.55;100244.15;103739;1316;68222;-90
2022/06/11 19:01:05;;;;;;;7.40;5.20;;;;;;;25.06;50.69;100244.29;103817;1316;74295;-90
2022/06/11 19:06:58;;;;;;;7.00;5.80;;;;;;;25.10;50.53;100238.20;103726;1316;72100;-91
2022/06/11 19:12:31;;;;;;;6.10;5.50;;;;;;;25.03;50.64;100258.83;103720;1318;67712;-90
2022/06/11 19:18:08;;;;;;;7.10;5.30;;;;;;;25.08;50.73;100266.92;103774;1316;81917;-91
2022/06/11 19:23:50;;;;;;;6.90;5.40;;;;;;;25.05;50.68;100260.63;103755;1316;67817;-90
2022/06/11 19:29:31;;;;;;;8.40;5.60;;;;;;;25.03;50.58;100268.88;103765;1320;72506;-91
2022/06/11 19:35:02;;;;;;;9.10;5.90;;;;;;;25.06;50.71;100268.79;103752;1315;71454;-89
2022/06/11 19:38:03;;;;;;;7.10;5.40;;;;;;;25.06;50.72;100264.08;103698;1316;67452;-90
2022/06/11 19:43:54;;;;;;;5.70;5.10;;;;;;;25.04;50.63;100264.31;103757;1315;73847;-90
2022/06/11 19:49:39;;;;;;;5.60;5.00;;;;;;;25.06;50.65;100259.70;103771;1315;71588;31
2022/06/11 19:55:24;;;;;;;5.60;4.30;;;;;;;25.01;50.72;100255.36;103753;1315;67821;-91
2022/06/11 20:03:49;;;;;;;6.90;5.00;;;;;;;25.05;50.61;100261.92;103726;1315;71640;-90
2022/06/11 20:09:21;;;;;;;4.50;4.10;;;;;;;25.00;50.69;100266.41;103751;1314;67656;-89
2022/06/11 20:14:59;;;;;;;6.70;4.90;;;;;;;25.04;50.58;100267.04;103754;1315;81742;-89
2022/06/11 20:20:33;;;;;;;10.60;4.80;;;;;;;24.99;50.61;100263.39;103772;1315;67281;-90
2022/06/11 20:26:06;;;;;;;4.50;4.00;;;;;;;25.02;50.58;100251.09;103773;1315;72819;-91
2022/06/11 20:29:08;;;;;;;5.20;4.40;;;;;;;25.03;50.71;100252.60;103761;1316;80297;-90
2022/06/11 20:32:13;;;;;;;5.70;4.60;;;;;;;25.01;50.65;100255.27;103769;1316;71427;-91
2022/06/11 20:38:04;;;;;;;6.10;4.90;;;;;;;24.98;50.63;100248.43;103732;1316;67776;-90
2022/06/11 20:47:03;;;;;;;8.30;4.40;;;;;;;24.95;50.81;100238.30;103730;1315;71723;-91
2022/06/11 20:50:07;;;;;;;5.30;4.40;;;;;;;24.91;50.76;100235.65;103601;1315;67748;-91
2022/06/11 20:55:59;;;;;;;5.00;4.50;;;;;;;24.89;51.00;100225.81;103752;1315;73869;-89
2022/06/11 21:01:39;;;;;;;6.50;4.50;;;;;;;24.98;50.91;100224.45;103772;1315;71623;-91
2022/06/11 21:10:29;;;;;;;5.10;4.40;;;;;;;24.94;50.88;100220.71;103782;1315;73696;-90
2022/06/11 21:16:24;;;;;;;5.80;4.60;;;;;;;25.00;50.63;100221.02;103674;1315;71611;31
2022/06/11 21:22:18;;;;;;;6.50;4.80;;;;;;;24.96;50.70;100219.76;103824;1318;67600;-91
2022/06/11 21:25:28;;;;;;;6.70;4.60;;;;;;;24.94;50.83;100221.08;103808;1315;74246;-90
2022/06/11 21:28:31;;;;;;;5.90;5.00;;;;;;;24.97;50.80;100223.44;103701;1318;80825;-89
2022/06/11 21:34:31;;;;;;;7.20;5.10;;;;;;;24.96;50.69;100226.19;103817;1315;67626;-90
2022/06/11 21:40:30;;;;;;;6.50;4.60;;;;;;;24.96;50.72;100223.15;103762;1315;73734;-90
2022/06/11 21:43:33;;;;;;;5.30;4.80;;;;;;;24.97;50.72;100223.39;103768;1315;81146;-89
2022/06/11 21:46:34;;;;;;;7.20;4.90;;;;;;;24.95;50.66;100226.20;103767;1315;71574;-90
2022/06/11 21:49:39;;;;;;;6.40;4.60;;;;;;;24.92;50.69;100227.70;103764;1315;68438;-91
2022/06/11 21:55:28;;;;;;;5.60;4.50;;;;;;;24.97;50.66;100227.45;103776;1315;72684;-91
2022/06/11 22:01:16;;;;;;;7.40;4.50;;;;;;;24.94;50.63;100228.23;103748;1314;71469;31
2022/06/11 22:06:55;;;;;;;6.40;5.00;;;;;;;24.99;50.60;100240.14;103792;1315;67670;-90
2022/06/11 22:15:26;;;;;;;5.80;4.40;;;;;;;24.91;50.72;100228.19;103776;1318;72038;-91
2022/06/11 22:21:05;;;;;;;8.70;5.60;;;;;;;24.98;50.71;100226.65;103768;1315;67729;-88
2022/06/11 22:26:37;;;;;;;5.60;4.80;;;;;;;24.95;50.63;100222.14;103764;1315;81148;-89
2022/06/11 22:35:12;;;;;;;7.90;5.00;;;;;;;24.96;50.61;100222.48;103773;1315;67880;-91
2022/06/11 22:40:46;;;;;;;8.60;5.10;;;;;;;24.92;50.58;100225.40;103741;1315;81556;-89
2022/06/11 22:46:22;;;;;;;7.00;4.80;;;;;;;24.91;50.72;100220.93;103785;1315;67981;-90
2022/06/11 22:52:00;;;;;;;6.20;5.00;;;;;;;24.95;50.62;100218.17;103772;1315;74655;31
2022/06/11 22:58:09;;;;;;;5.70;4.80;;;;;;;24.91;50.62;100211.31;103805;1315;71547;-89
2022/06/11 23:03:58;;;;;;;5.70;5.10;;;;;;;24.96;50.60;100213.79;103737;1317;67161;31
2022/06/11 23:12:17;;;;;;;7.00;4.80;;;;;;;24.93;50.54;100208.50;103755;1315;75287;-91
2022/06/11 23:18:07;;;;;;;6.50;5.10;;;;;;;24.97;50.57;100207.08;103748;1318;67775;-90
2022/06/11 23:23:44;;;;;;;7.30;5.20;;;;;;;24.91;50.52;100204.92;103756;1316;82332;-89
2022/06/11 23:29:21;;;;;;;6.40;5.20;;;;;;;24.93;50.50;100206.98;103794;1315;66972;-89
2022/06/11 23:35:01;;;;;;;9.50;5.60;;;;;;;24.92;50.52;100205.84;103823;1315;74148;-90
2022/06/11 23:40:42;;;;;;;5.20;4.20;;;;;;;24.89;50.48;100205.74;103731;1318;67102;-91
2022/06/11 23:46:20;;;;;;;5.90;4.90;;;;;;;24.87;50.47;100205.48;103736;1316;67987;-91
2022/06/11 23:52:16;;;;;;;8.00;4.80;;;;;;;24.84;50.51;100206.27;103757;1315;81227;-90
2022/06/11 23:57:55;;;;;;;6.00;4.80;;;;;;;24.80;50.46;100203.65;90703;1315;67108;-90
